Time;durP1;ratioP1;P1;durP2;ratioP2;P2;SDS_P1;SDS_P2;PMS_P1;PMS_P2;Temp;Humidity;BMP_temperature;BMP_pressure;BME280_temperature;BME280_humidity;BME280_pressure;Samples;Min_cycle;Max_cycle;Signal;HPM_P1;HPM_P2
2021/12/08 00:00:59;;;;;;;;;;;;;;;;;;5094490;28;19916;-87
2021/12/08 00:03:28;;;;;;;;;;;;;;;;;;5094698;28;19916;-86
2021/12/08 00:05:54;;;;;;;;;;;;;;;;;;5095001;28;19969;-88
2021/12/08 00:08:20;;;;;;;;;;;;;;;;;;5095071;28;19916;-87
2021/12/08 00:13:22;;;;;;;;;;;;;;;;;;5094687;28;19916;-87
2021/12/08 00:15:50;;;;;;;;;;;;;;;;;;5094562;28;20436;-85
2021/12/08 00:18:16;;;;;;;;;;;;;;;;;;5094479;28;19916;-81
2021/12/08 00:20:43;;;;;;;;;;;;;;;;;;5094478;28;19923;-84
2021/12/08 00:23:09;;;;;;;;;;;;;;;;;;5094466;28;20260;-84
2021/12/08 00:25:35;;;;;;;;;;;;;;;;;;5094343;28;19920;-81
2021/12/08 00:28:01;;;;;;;;;;;;;;;;;;5094309;28;19922;-82
2021/12/08 00:30:27;;;;;;;;;;;;;;;;;;5094247;28;19916;-85
2021/12/08 00:32:54;;;;;;;;;;;;;;;;;;5094378;28;19924;-86
2021/12/08 00:35:20;;;;;;;;;;;;;;;;;;5094389;28;19916;-83
2021/12/08 00:37:45;;;;;;;;;;;;;;;;;;5094315;28;19920;-88
2021/12/08 00:40:14;;;;;;;;;;;;;;;;;;5094302;28;19916;-85
2021/12/08 00:42:39;;;;;;;;;;;;;;;;;;5094180;28;19958;-83
2021/12/08 00:45:06;;;;;;;;;;;;;;;;;;5094117;28;19963;-85
2021/12/08 00:47:32;;;;;;;;;;;;;;;;;;5093970;28;19920;-82
2021/12/08 00:49:57;;;;;;;;;;;;;;;;;;5094017;28;19962;-84
2021/12/08 00:52:28;;;;;;;;;;;;;;;;;;5093960;28;20330;-85
2021/12/08 00:54:53;;;;;;;;;;;;;;;;;;5093984;28;19916;-84
2021/12/08 00:57:19;;;;;;;;;;;;;;;;;;5093851;28;19926;-83
2021/12/08 00:59:44;;;;;;;;;;;;;;;;;;5093738;28;19920;-86
2021/12/08 01:02:10;;;;;;;;;;;;;;;;;;5093859;28;19920;-83
2021/12/08 01:04:35;;;;;;;;;;;;;;;;;;5093720;28;19931;-85
2021/12/08 01:07:02;;;;;;;;;;;;;;;;;;5093630;28;19916;-86
2021/12/08 01:09:27;;;;;;;;;;;;;;;;;;5093600;28;19916;-87
2021/12/08 01:11:55;;;;;;;;;;;;;;;;;;5093846;28;19916;-85
2021/12/08 01:14:21;;;;;;;;;;;;;;;;;;5093265;28;20019;-84
2021/12/08 01:16:46;;;;;;;;;;;;;;;;;;5093546;28;19955;-85
2021/12/08 01:19:12;;;;;;;;;;;;;;;;;;5093506;28;19970;-80
2021/12/08 01:21:37;;;;;;;;;;;;;;;;;;5093514;28;20290;-86
2021/12/08 01:24:03;;;;;;;;;;;;;;;;;;5093656;28;19923;-84
2021/12/08 01:26:29;;;;;;;;;;;;;;;;;;5093373;28;20360;-86
2021/12/08 01:28:57;;;;;;;;;;;;;;;;;;5093354;28;20032;-85
2021/12/08 01:31:23;;;;;;;;;;;;;;;;;;5093194;28;19920;-85
2021/12/08 01:33:49;;;;;;;;;;;;;;;;;;5093236;28;19916;-87
2021/12/08 01:36:15;;;;;;;;;;;;;;;;;;5093322;28;19916;-86
2021/12/08 01:38:40;;;;;;;;;;;;;;;;;;5093178;28;19917;-86
2021/12/08 01:41:06;;;;;;;;;;;;;;;;;;5093184;28;19921;-85
2021/12/08 01:43:43;;;;;;;;;;;;;;;;;;5093254;28;19923;-86
2021/12/08 01:46:10;;;;;;;;;;;;;;;;;;5093146;28;19917;-87
2021/12/08 01:48:38;;;;;;;;;;;;;;;;;;5093205;28;19942;-85
2021/12/08 01:51:10;;;;;;;;;;;;;;;;;;5093176;28;19916;-85
2021/12/08 01:53:37;;;;;;;;;;;;;;;;;;5093193;28;19920;-87
2021/12/08 01:56:03;;;;;;;;;;;;;;;;;;5093175;28;19958;-85
2021/12/08 01:58:29;;;;;;;;;;;;;;;;;;5093295;28;19920;-86
2021/12/08 02:01:01;;;;;;;;;;;;;;;;;;5093098;28;19960;-86
2021/12/08 02:03:27;;;;;;;;;;;;;;;;;;5093673;28;19912;-87
2021/12/08 02:05:53;;;;;;;;;;;;;;;;;;5093068;28;19916;-84
2021/12/08 02:08:19;;;;;;;;;;;;;;;;;;5093013;28;19945;-84
2021/12/08 02:10:44;;;;;;;;;;;;;;;;;;5093308;28;19927;-84
2021/12/08 02:13:10;;;;;;;;;;;;;;;;;;5093018;28;20448;-84
2021/12/08 02:15:37;;;;;;;;;;;;;;;;;;5092870;28;20019;-86
2021/12/08 02:18:03;;;;;;;;;;;;;;;;;;5092965;28;19923;-85
2021/12/08 02:20:28;;;;;;;;;;;;;;;;;;5092930;28;19916;-81
2021/12/08 02:22:54;;;;;;;;;;;;;;;;;;5092849;28;19916;-81
2021/12/08 02:25:22;;;;;;;;;;;;;;;;;;5094574;28;19916;-86
2021/12/08 02:27:48;;;;;;;;;;;;;;;;;;5096638;28;19916;-81
2021/12/08 02:30:22;;;;;;;;;;;;;;;;;;5078434;28;19922;-85
2021/12/08 02:49:14;;;;;;;;;;;;;;;;;;5096780;28;19961;-85
2021/12/08 02:51:39;;;;;;;;;;;;;;;;;;5097081;28;19922;-83
2021/12/08 02:54:05;;;;;;;;;;;;;;;;;;5078376;28;19990;-85
2021/12/08 02:56:30;;;;;;;;;;;;;;;;;;5096533;28;19969;-85
2021/12/08 02:58:57;;;;;;;;;;;;;;;;;;5106138;28;19927;-83
2021/12/08 03:01:22;;;;;;;;;;;;;;;;;;5118447;28;19907;-82
2021/12/08 03:03:48;;;;;;;;;;;;;;;;;;5119310;28;19924;-80
2021/12/08 03:06:13;;;;;;;;;;;;;;;;;;5108479;28;19920;-82
2021/12/08 03:08:39;;;;;;;;;;;;;;;;;;5096279;28;19923;-86
2021/12/08 03:11:05;;;;;;;;;;;;;;;;;;5096343;28;20264;-83
2021/12/08 03:13:30;;;;;;;;;;;;;;;;;;5095816;28;19962;-84
2021/12/08 03:15:56;;;;;;;;;;;;;;;;;;5095693;28;19920;-84
2021/12/08 03:18:22;;;;;;;;;;;;;;;;;;5095738;28;20014;-86
2021/12/08 03:20:49;;;;;;;;;;;;;;;;;;5095636;28;20299;-85
2021/12/08 03:23:18;;;;;;;;;;;;;;;;;;5095657;28;19920;-85
2021/12/08 03:25:54;;;;;;;;;;;;;;;;;;5095445;28;20360;-79
2021/12/08 03:28:24;;;;;;;;;;;;;;;;;;5095528;28;19927;-84
2021/12/08 03:31:16;;;;;;;;;;;;;;;;;;5095361;28;19924;-80
2021/12/08 03:33:35;;;;;;;;;;;;;;;;;;5094951;28;19981;-85
2021/12/08 03:36:02;;;;;;;;;;;;;;;;;;5095140;28;19955;-86
2021/12/08 03:38:28;;;;;;;;;;;;;;;;;;5095523;28;19923;-85
2021/12/08 03:40:54;;;;;;;;;;;;;;;;;;5095598;28;19935;-85
2021/12/08 03:43:20;;;;;;;;;;;;;;;;;;5095358;28;20368;-85
2021/12/08 03:45:47;;;;;;;;;;;;;;;;;;5095331;28;19962;-83
2021/12/08 03:48:19;;;;;;;;;;;;;;;;;;5095150;28;19951;-85
2021/12/08 03:50:44;;;;;;;;;;;;;;;;;;5095288;28;19916;-84
2021/12/08 03:53:12;;;;;;;;;;;;;;;;;;5095185;28;19938;-80
2021/12/08 03:55:38;;;;;;;;;;;;;;;;;;5095172;28;19935;-85
2021/12/08 03:58:04;;;;;;;;;;;;;;;;;;5095163;28;19916;-81
2021/12/08 04:00:29;;;;;;;;;;;;;;;;;;5095269;28;20381;-83
2021/12/08 04:02:56;;;;;;;;;;;;;;;;;;5095111;28;20363;-83
2021/12/08 04:05:31;;;;;;;;;;;;;;;;;;5094897;28;20394;-86
2021/12/08 04:08:03;;;;;;;;;;;;;;;;;;5094927;28;20030;-78
2021/12/08 04:10:28;;;;;;;;;;;;;;;;;;5094885;28;20006;-83
2021/12/08 04:12:54;;;;;;;;;;;;;;;;;;5094791;28;20011;-85
2021/12/08 04:15:21;;;;;;;;;;;;;;;;;;5094800;28;19923;-85
2021/12/08 04:17:48;;;;;;;;;;;;;;;;;;5094660;28;19920;-82
2021/12/08 04:20:20;;;;;;;;;;;;;;;;;;5094789;28;19967;-85
2021/12/08 04:22:47;;;;;;;;;;;;;;;;;;5094617;28;19916;-80
2021/12/08 04:25:16;;;;;;;;;;;;;;;;;;5094719;28;19916;-83
2021/12/08 04:27:43;;;;;;;;;;;;;;;;;;5094445;28;19961;-85
2021/12/08 04:30:11;;;;;;;;;;;;;;;;;;5093749;28;20267;-84
2021/12/08 04:32:37;;;;;;;;;;;;;;;;;;5080059;28;19936;-85
2021/12/08 04:35:04;;;;;;;;;;;;;;;;;;5094567;28;19920;-83
2021/12/08 04:37:32;;;;;;;;;;;;;;;;;;5094384;28;19927;-85
2021/12/08 04:40:27;;;;;;;;;;;;;;;;;;5091173;28;19917;-87
2021/12/08 04:43:12;;;;;;;;;;;;;;;;;;5074099;28;19922;-83
2021/12/08 04:46:00;;;;;;;;;;;;;;;;;;5074049;28;19916;-84
2021/12/08 05:04:38;;;;;;;;;;;;;;;;;;5076170;28;19924;-84
2021/12/08 05:07:32;;;;;;;;;;;;;;;;;;5088913;28;19970;-86
2021/12/08 05:09:59;;;;;;;;;;;;;;;;;;5093694;28;19960;-87
2021/12/08 05:12:30;;;;;;;;;;;;;;;;;;5078869;28;19920;-85
2021/12/08 05:15:19;;;;;;;;;;;;;;;;;;5071660;28;19920;-82
2021/12/08 05:17:51;;;;;;;;;;;;;;;;;;5063465;28;19916;-87
2021/12/08 05:20:17;;;;;;;;;;;;;;;;;;5072103;28;19931;-84
2021/12/08 05:22:45;;;;;;;;;;;;;;;;;;5054596;28;19920;-83
2021/12/08 05:25:13;;;;;;;;;;;;;;;;;;5072994;28;19922;-81
2021/12/08 05:27:43;;;;;;;;;;;;;;;;;;5072797;28;19917;-87
2021/12/08 05:30:27;;;;;;;;;;;;;;;;;;5073427;28;19939;-82
2021/12/08 05:32:53;;;;;;;;;;;;;;;;;;5073175;28;19925;-87
2021/12/08 05:35:20;;;;;;;;;;;;;;;;;;5073180;28;20330;-80
2021/12/08 05:37:46;;;;;;;;;;;;;;;;;;5073139;28;19966;-86
2021/12/08 05:40:15;;;;;;;;;;;;;;;;;;5073080;28;19924;-85
2021/12/08 05:42:41;;;;;;;;;;;;;;;;;;5073048;28;20412;-84
2021/12/08 05:45:09;;;;;;;;;;;;;;;;;;5073102;28;19955;-86
2021/12/08 05:47:34;;;;;;;;;;;;;;;;;;5073039;28;19920;-87
2021/12/08 05:50:00;;;;;;;;;;;;;;;;;;5073050;28;19970;-82
2021/12/08 05:52:25;;;;;;;;;;;;;;;;;;5073095;28;20092;-87
2021/12/08 05:54:51;;;;;;;;;;;;;;;;;;5072984;28;19923;-81
2021/12/08 05:57:22;;;;;;;;;;;;;;;;;;5072954;28;19946;-80
2021/12/08 05:59:49;;;;;;;;;;;;;;;;;;5075539;28;19939;-86
2021/12/08 06:02:20;;;;;;;;;;;;;;;;;;5076967;28;19921;-83
2021/12/08 06:04:46;;;;;;;;;;;;;;;;;;5077140;28;19943;-86
2021/12/08 06:07:12;;;;;;;;;;;;;;;;;;5076784;28;19916;-86
2021/12/08 06:09:38;;;;;;;;;;;;;;;;;;5076791;28;19942;-86
2021/12/08 06:12:04;;;;;;;;;;;;;;;;;;5059615;28;19924;-79
2021/12/08 06:14:32;;;;;;;;;;;;;;;;;;5077887;28;19924;-86
2021/12/08 06:16:59;;;;;;;;;;;;;;;;;;5095288;28;19916;-79
2021/12/08 06:19:25;;;;;;;;;;;;;;;;;;5096836;28;20367;-85
2021/12/08 06:21:50;;;;;;;;;;;;;;;;;;5096676;28;19920;-84
2021/12/08 06:24:17;;;;;;;;;;;;;;;;;;5096847;28;19924;-85
2021/12/08 06:26:42;;;;;;;;;;;;;;;;;;5096653;28;19938;-86
2021/12/08 06:29:10;;;;;;;;;;;;;;;;;;5084129;28;19917;-83
2021/12/08 06:31:37;;;;;;;;;;;;;;;;;;5095886;28;19931;-78
2021/12/08 06:34:03;;;;;;;;;;;;;;;;;;5090568;28;19923;-82
2021/12/08 06:36:30;;;;;;;;;;;;;;;;;;5075333;28;19921;-79
2021/12/08 06:38:56;;;;;;;;;;;;;;;;;;5074717;28;20328;-82
2021/12/08 06:41:25;;;;;;;;;;;;;;;;;;5074911;28;19928;-77
2021/12/08 06:43:52;;;;;;;;;;;;;;;;;;5076171;28;19960;-78
2021/12/08 06:46:18;;;;;;;;;;;;;;;;;;5076040;28;20390;-78
2021/12/08 06:48:49;;;;;;;;;;;;;;;;;;5076085;28;19916;-78
2021/12/08 06:51:17;;;;;;;;;;;;;;;;;;5076055;28;20012;-83
2021/12/08 06:53:44;;;;;;;;;;;;;;;;;;5058193;28;19920;-82
2021/12/08 06:56:12;;;;;;;;;;;;;;;;;;5058012;28;20292;-81
2021/12/08 06:58:43;;;;;;;;;;;;;;;;;;5075937;28;19939;-78
2021/12/08 07:03:52;;;;;;;;;;;;;;;;;;5075770;28;20379;-87
2021/12/08 07:09:05;;;;;;;;;;;;;;;;;;5076032;28;20413;-82
2021/12/08 07:11:32;;;;;;;;;;;;;;;;;;5074984;28;20261;-78
2021/12/08 07:13:57;;;;;;;;;;;;;;;;;;5075877;28;19917;-87
2021/12/08 07:16:25;;;;;;;;;;;;;;;;;;5075913;28;19919;-85
2021/12/08 07:18:56;;;;;;;;;;;;;;;;;;5077020;28;19923;-82
2021/12/08 07:21:24;;;;;;;;;;;;;;;;;;5076615;28;19955;-78
2021/12/08 07:23:58;;;;;;;;;;;;;;;;;;5075162;28;19965;-82
2021/12/08 07:26:25;;;;;;;;;;;;;;;;;;5083973;28;19922;-82
2021/12/08 07:28:52;;;;;;;;;;;;;;;;;;5083754;28;19925;-77
2021/12/08 07:31:28;;;;;;;;;;;;;;;;;;5074443;28;19947;-83
2021/12/08 07:33:54;;;;;;;;;;;;;;;;;;5074361;28;19916;-88
2021/12/08 07:36:21;;;;;;;;;;;;;;;;;;5090424;28;19962;-86
2021/12/08 07:38:49;;;;;;;;;;;;;;;;;;5075120;28;19925;-84
2021/12/08 07:41:20;;;;;;;;;;;;;;;;;;5075092;28;19916;-88
2021/12/08 07:43:50;;;;;;;;;;;;;;;;;;5075064;28;20011;-82
2021/12/08 07:46:18;;;;;;;;;;;;;;;;;;5074984;28;19956;-87
2021/12/08 07:48:48;;;;;;;;;;;;;;;;;;5090816;28;19916;-84
2021/12/08 07:51:19;;;;;;;;;;;;;;;;;;5074948;28;19917;-81
2021/12/08 07:53:45;;;;;;;;;;;;;;;;;;5057034;28;20399;-81
2021/12/08 07:56:12;;;;;;;;;;;;;;;;;;5074824;28;19923;-82
2021/12/08 07:58:40;;;;;;;;;;;;;;;;;;5074641;28;19929;-87
2021/12/08 08:01:10;;;;;;;;;;;;;;;;;;5074830;28;19917;-79
2021/12/08 08:03:36;;;;;;;;;;;;;;;;;;5074711;28;20035;-79
2021/12/08 08:06:04;;;;;;;;;;;;;;;;;;5074502;28;19968;-81
2021/12/08 08:08:31;;;;;;;;;;;;;;;;;;5074510;28;20501;-81
2021/12/08 08:10:59;;;;;;;;;;;;;;;;;;5074464;28;20287;-81
2021/12/08 08:13:26;;;;;;;;;;;;;;;;;;5074389;28;19923;-81
2021/12/08 08:15:54;;;;;;;;;;;;;;;;;;5074384;28;20345;-81
2021/12/08 08:18:25;;;;;;;;;;;;;;;;;;5056445;28;20034;-81
2021/12/08 08:20:55;;;;;;;;;;;;;;;;;;5074360;28;19917;-78
2021/12/08 08:23:21;;;;;;;;;;;;;;;;;;5073219;28;20358;-86
2021/12/08 08:25:48;;;;;;;;;;;;;;;;;;5089625;28;19920;-85
2021/12/08 08:28:16;;;;;;;;;;;;;;;;;;5056183;28;20307;-82
2021/12/08 08:30:45;;;;;;;;;;;;;;;;;;5073886;28;19917;-81
2021/12/08 08:33:11;;;;;;;;;;;;;;;;;;5074055;28;19982;-79
2021/12/08 08:35:39;;;;;;;;;;;;;;;;;;5073982;28;19920;-82
2021/12/08 08:38:08;;;;;;;;;;;;;;;;;;5074036;28;20310;-80
2021/12/08 08:40:41;;;;;;;;;;;;;;;;;;5073904;28;19916;-80
2021/12/08 08:43:08;;;;;;;;;;;;;;;;;;5074399;28;19920;-80
2021/12/08 08:45:37;;;;;;;;;;;;;;;;;;5077905;28;20265;-80
2021/12/08 08:48:06;;;;;;;;;;;;;;;;;;5077844;28;20023;-80
2021/12/08 08:50:37;;;;;;;;;;;;;;;;;;5075056;28;19916;-80
2021/12/08 08:53:03;;;;;;;;;;;;;;;;;;5073755;28;19917;-80
2021/12/08 08:55:32;;;;;;;;;;;;;;;;;;5073631;28;19923;-80
2021/12/08 08:57:57;;;;;;;;;;;;;;;;;;5073621;28;19986;-80
2021/12/08 09:00:37;;;;;;;;;;;;;;;;;;5073600;28;19916;-80
2021/12/08 09:03:07;;;;;;;;;;;;;;;;;;5073632;28;19923;-79
2021/12/08 09:05:44;;;;;;;;;;;;;;;;;;5073497;28;19924;-80
2021/12/08 09:08:11;;;;;;;;;;;;;;;;;;5073446;28;19917;-85
2021/12/08 09:10:45;;;;;;;;;;;;;;;;;;5073380;28;19925;-86
2021/12/08 09:13:13;;;;;;;;;;;;;;;;;;5073392;28;19923;-84
2021/12/08 09:15:41;;;;;;;;;;;;;;;;;;5073306;28;19916;-82
2021/12/08 09:18:12;;;;;;;;;;;;;;;;;;5073346;28;19970;-79
2021/12/08 09:20:56;;;;;;;;;;;;;;;;;;5073521;28;19916;-79
2021/12/08 09:23:27;;;;;;;;;;;;;;;;;;5073479;28;19917;-84
2021/12/08 09:26:04;;;;;;;;;;;;;;;;;;5073357;28;19921;-84
2021/12/08 09:28:35;;;;;;;;;;;;;;;;;;5055273;28;19977;-84
2021/12/08 09:31:06;;;;;;;;;;;;;;;;;;5073090;28;19920;-80
2021/12/08 09:33:39;;;;;;;;;;;;;;;;;;5072838;28;19924;-85
2021/12/08 09:36:10;;;;;;;;;;;;;;;;;;5055166;28;19930;-87
2021/12/08 09:38:47;;;;;;;;;;;;;;;;;;5073207;28;19920;-78
2021/12/08 09:41:13;;;;;;;;;;;;;;;;;;5073169;28;19917;-82
2021/12/08 09:43:59;;;;;;;;;;;;;;;;;;5073042;28;20299;-82
2021/12/08 09:46:29;;;;;;;;;;;;;;;;;;5073217;28;20283;-81
2021/12/08 09:48:55;;;;;;;;;;;;;;;;;;5073016;28;19966;-81
2021/12/08 09:51:22;;;;;;;;;;;;;;;;;;5072986;28;19916;-81
2021/12/08 09:53:48;;;;;;;;;;;;;;;;;;5072997;28;19923;-80
2021/12/08 09:56:13;;;;;;;;;;;;;;;;;;5073126;28;20300;-81
2021/12/08 09:58:40;;;;;;;;;;;;;;;;;;5073249;28;19920;-82
2021/12/08 10:01:06;;;;;;;;;;;;;;;;;;5072931;28;19916;-81
2021/12/08 10:03:33;;;;;;;;;;;;;;;;;;5072884;28;19916;-80
2021/12/08 10:05:59;;;;;;;;;;;;;;;;;;5072749;28;19916;-84
2021/12/08 10:08:25;;;;;;;;;;;;;;;;;;5072825;28;19927;-83
2021/12/08 10:10:50;;;;;;;;;;;;;;;;;;5072848;28;19916;-82
2021/12/08 10:13:16;;;;;;;;;;;;;;;;;;5075991;28;19971;-83
2021/12/08 10:15:42;;;;;;;;;;;;;;;;;;5088720;28;19916;-84
2021/12/08 10:18:09;;;;;;;;;;;;;;;;;;5072584;28;20020;-81
2021/12/08 10:20:39;;;;;;;;;;;;;;;;;;5081582;28;19923;-87
2021/12/08 10:23:13;;;;;;;;;;;;;;;;;;5092862;28;20283;-90
2021/12/08 10:25:48;;;;;;;;;;;;;;;;;;5074927;28;19916;-83
2021/12/08 10:28:17;;;;;;;;;;;;;;;;;;5072665;28;19916;-88
2021/12/08 10:31:09;;;;;;;;;;;;;;;;;;5072285;28;20011;-86
2021/12/08 10:33:59;;;;;;;;;;;;;;;;;;5085169;28;19964;-86
2021/12/08 10:39:16;;;;;;;;;;;;;;;;;;5107173;28;19916;-80
2021/12/08 10:41:48;;;;;;;;;;;;;;;;;;5107969;28;20404;-84
2021/12/08 10:44:14;;;;;;;;;;;;;;;;;;5092759;28;19920;-83
2021/12/08 10:46:39;;;;;;;;;;;;;;;;;;5076693;28;19916;-81
2021/12/08 10:49:13;;;;;;;;;;;;;;;;;;5096261;28;20007;-85
2021/12/08 10:54:31;;;;;;;;;;;;;;;;;;5106726;28;19966;-85
2021/12/08 10:56:58;;;;;;;;;;;;;;;;;;5116543;28;20459;-88
2021/12/08 10:59:25;;;;;;;;;;;;;;;;;;5116580;28;20002;-82
2021/12/08 11:01:52;;;;;;;;;;;;;;;;;;5116343;28;19916;-81
2021/12/08 11:04:19;;;;;;;;;;;;;;;;;;5116417;28;20031;-80
2021/12/08 11:06:45;;;;;;;;;;;;;;;;;;5114632;28;19919;-86
2021/12/08 11:09:15;;;;;;;;;;;;;;;;;;5097942;28;20272;-80
2021/12/08 11:11:43;;;;;;;;;;;;;;;;;;5094347;28;20002;-81
2021/12/08 11:14:10;;;;;;;;;;;;;;;;;;5095989;28;20371;-85
2021/12/08 11:16:40;;;;;;;;;;;;;;;;;;5096937;28;19923;-85
2021/12/08 11:19:10;;;;;;;;;;;;;;;;;;5101695;28;19924;-81
2021/12/08 11:21:39;;;;;;;;;;;;;;;;;;5095902;28;19927;-83
2021/12/08 11:24:10;;;;;;;;;;;;;;;;;;5109407;28;19977;-82
2021/12/08 11:26:40;;;;;;;;;;;;;;;;;;5116008;28;19924;-79
2021/12/08 11:29:11;;;;;;;;;;;;;;;;;;5097939;28;19970;-83
2021/12/08 11:31:44;;;;;;;;;;;;;;;;;;5097522;28;20343;-83
2021/12/08 11:34:18;;;;;;;;;;;;;;;;;;5116188;28;19923;-84
2021/12/08 11:36:45;;;;;;;;;;;;;;;;;;5097887;28;19912;-83
2021/12/08 11:39:18;;;;;;;;;;;;;;;;;;5095397;28;19923;-83
2021/12/08 11:41:45;;;;;;;;;;;;;;;;;;5095272;28;20007;-84
2021/12/08 11:44:17;;;;;;;;;;;;;;;;;;5095296;28;19920;-82
2021/12/08 11:46:45;;;;;;;;;;;;;;;;;;5095155;28;20002;-83
2021/12/08 11:49:11;;;;;;;;;;;;;;;;;;5095388;28;19916;-82
2021/12/08 11:51:42;;;;;;;;;;;;;;;;;;5077439;28;19969;-82
2021/12/08 11:54:21;;;;;;;;;;;;;;;;;;5095103;28;19916;-86
2021/12/08 11:56:47;;;;;;;;;;;;;;;;;;5094876;28;19932;-83
2021/12/08 11:59:13;;;;;;;;;;;;;;;;;;5094885;28;19965;-85
2021/12/08 12:01:39;;;;;;;;;;;;;;;;;;5094859;28;20420;-81
2021/12/08 12:04:06;;;;;;;;;;;;;;;;;;5094761;28;19967;-89
2021/12/08 12:09:08;;;;;;;;;;;;;;;;;;5055374;23;19928;-83
2021/12/08 12:11:35;;;;;;;;;;;;;;;;;;5054367;28;19921;-82
2021/12/08 12:14:01;;;;;;;;;;;;;;;;;;5199044;23;19932;-84
2021/12/08 12:16:27;;;;;;;;;;;;;;;;;;5055014;28;20288;-85
2021/12/08 12:18:55;;;;;;;;;;;;;;;;;;5054303;28;20008;-81
2021/12/08 12:21:36;;;;;;;;;;;;;;;;;;5054231;28;19998;-86
2021/12/08 12:24:02;;;;;;;;;;;;;;;;;;5054220;28;20011;-82
2021/12/08 12:26:45;;;;;;;;;;;;;;;;;;5054188;28;20016;-83
2021/12/08 12:29:31;;;;;;;;;;;;;;;;;;5054193;28;20005;-83
2021/12/08 12:32:08;;;;;;;;;;;;;;;;;;5053999;28;19917;-84
2021/12/08 12:34:38;;;;;;;;;;;;;;;;;;5054369;28;20300;-90
2021/12/08 12:37:23;;;;;;;;;;;;;;;;;;5054035;28;19917;-85
2021/12/08 12:39:50;;;;;;;;;;;;;;;;;;5053924;28;19917;-84
2021/12/08 12:42:17;;;;;;;;;;;;;;;;;;5053938;28;20277;-83
2021/12/08 12:44:45;;;;;;;;;;;;;;;;;;5053845;28;19916;-79
2021/12/08 12:47:22;;;;;;;;;;;;;;;;;;5053642;28;19925;-83
2021/12/08 12:50:00;;;;;;;;;;;;;;;;;;5053886;28;19920;-85
2021/12/08 12:52:34;;;;;;;;;;;;;;;;;;5053935;28;19921;-85
2021/12/08 12:55:07;;;;;;;;;;;;;;;;;;5053624;28;19917;-83
2021/12/08 12:57:53;;;;;;;;;;;;;;;;;;5054057;28;19913;-83
2021/12/08 13:00:29;;;;;;;;;;;;;;;;;;5053383;28;19967;-83
2021/12/08 13:02:54;;;;;;;;;;;;;;;;;;5053523;28;20029;-81
2021/12/08 13:05:20;;;;;;;;;;;;;;;;;;5053519;28;19956;-83
2021/12/08 13:07:56;;;;;;;;;;;;;;;;;;5035483;28;19917;-82
2021/12/08 13:10:29;;;;;;;;;;;;;;;;;;5053128;28;19920;-83
2021/12/08 13:13:07;;;;;;;;;;;;;;;;;;5053368;28;20051;-82
2021/12/08 13:15:33;;;;;;;;;;;;;;;;;;5053256;28;20363;-85
2021/12/08 13:17:58;;;;;;;;;;;;;;;;;;5053269;28;20008;-83
2021/12/08 13:20:25;;;;;;;;;;;;;;;;;;5053318;28;19948;-84
2021/12/08 13:22:55;;;;;;;;;;;;;;;;;;5053279;28;19971;-82
2021/12/08 13:25:38;;;;;;;;;;;;;;;;;;5053288;28;19956;-84
2021/12/08 13:28:13;;;;;;;;;;;;;;;;;;5053103;28;19921;-82
2021/12/08 13:30:43;;;;;;;;;;;;;;;;;;5053121;28;19925;-84
2021/12/08 13:33:29;;;;;;;;;;;;;;;;;;5053162;28;20012;-85
2021/12/08 13:35:56;;;;;;;;;;;;;;;;;;5034888;28;19924;-85
2021/12/08 13:38:22;;;;;;;;;;;;;;;;;;5053025;28;19924;-81
2021/12/08 13:40:50;;;;;;;;;;;;;;;;;;5051226;28;19925;-80
2021/12/08 13:43:31;;;;;;;;;;;;;;;;;;5052951;28;19917;-83
2021/12/08 13:45:57;;;;;;;;;;;;;;;;;;5053016;28;19967;-79
2021/12/08 13:48:24;;;;;;;;;;;;;;;;;;5052983;28;19952;-83
2021/12/08 13:50:49;;;;;;;;;;;;;;;;;;5053147;28;19925;-87
2021/12/08 13:53:16;;;;;;;;;;;;;;;;;;5053114;28;20373;-80
2021/12/08 13:55:41;;;;;;;;;;;;;;;;;;5058417;28;19963;-83
2021/12/08 13:58:18;;;;;;;;;;;;;;;;;;5053182;28;19920;-82
2021/12/08 14:00:45;;;;;;;;;;;;;;;;;;5053356;28;19917;-81
2021/12/08 14:03:13;;;;;;;;;;;;;;;;;;5052958;28;19921;-81
2021/12/08 14:05:38;;;;;;;;;;;;;;;;;;5053344;28;19924;-81
2021/12/08 14:08:22;;;;;;;;;;;;;;;;;;5052557;28;20042;-80
2021/12/08 14:10:49;;;;;;;;;;;;;;;;;;5054267;28;19917;-82
2021/12/08 14:13:16;;;;;;;;;;;;;;;;;;5054898;28;20007;-79
2021/12/08 14:15:43;;;;;;;;;;;;;;;;;;5058707;28;19924;-81
2021/12/08 14:18:27;;;;;;;;;;;;;;;;;;5057617;28;19940;-79
2021/12/08 14:21:00;;;;;;;;;;;;;;;;;;5056412;28;19974;-82
2021/12/08 14:23:30;;;;;;;;;;;;;;;;;;5056659;28;19971;-83
2021/12/08 14:25:57;;;;;;;;;;;;;;;;;;5055518;28;19920;-82
2021/12/08 14:28:27;;;;;;;;;;;;;;;;;;5056654;28;20009;-83
2021/12/08 14:30:54;;;;;;;;;;;;;;;;;;5056250;28;19920;-78
2021/12/08 14:33:23;;;;;;;;;;;;;;;;;;5055391;28;19923;-82
2021/12/08 14:35:55;;;;;;;;;;;;;;;;;;5056850;28;19979;-88
2021/12/08 14:38:21;;;;;;;;;;;;;;;;;;5056750;28;20398;-79
2021/12/08 14:40:46;;;;;;;;;;;;;;;;;;5056639;28;19917;-79
2021/12/08 14:43:23;;;;;;;;;;;;;;;;;;5056577;28;19916;-80
2021/12/08 14:45:49;;;;;;;;;;;;;;;;;;5056329;28;19928;-79
2021/12/08 14:48:14;;;;;;;;;;;;;;;;;;5056347;28;19963;-81
2021/12/08 14:50:40;;;;;;;;;;;;;;;;;;5056360;28;19917;-79
2021/12/08 14:53:12;;;;;;;;;;;;;;;;;;5038202;28;19916;-81
2021/12/08 14:55:38;;;;;;;;;;;;;;;;;;5056206;28;20003;-81
2021/12/08 14:58:03;;;;;;;;;;;;;;;;;;5056007;28;19940;-76
2021/12/08 15:00:29;;;;;;;;;;;;;;;;;;5055880;28;19921;-79
2021/12/08 15:03:06;;;;;;;;;;;;;;;;;;5055243;28;19921;-79
2021/12/08 15:05:32;;;;;;;;;;;;;;;;;;5055665;28;19960;-80
2021/12/08 15:08:06;;;;;;;;;;;;;;;;;;5055512;28;19955;-79
2021/12/08 15:10:31;;;;;;;;;;;;;;;;;;5055694;28;19924;-82
2021/12/08 15:13:09;;;;;;;;;;;;;;;;;;5055385;28;19917;-79
2021/12/08 15:15:35;;;;;;;;;;;;;;;;;;5055430;28;19921;-78
2021/12/08 15:18:01;;;;;;;;;;;;;;;;;;5055658;28;19921;-79
2021/12/08 15:20:38;;;;;;;;;;;;;;;;;;5055092;28;19923;-81
2021/12/08 15:23:13;;;;;;;;;;;;;;;;;;5055416;28;19916;-81
2021/12/08 15:25:42;;;;;;;;;;;;;;;;;;5055505;28;19913;-81
2021/12/08 15:28:09;;;;;;;;;;;;;;;;;;5055098;28;19923;-79
2021/12/08 15:30:37;;;;;;;;;;;;;;;;;;5055198;28;19916;-81
2021/12/08 15:33:03;;;;;;;;;;;;;;;;;;5036781;28;19920;-82
2021/12/08 15:35:29;;;;;;;;;;;;;;;;;;5055211;28;19921;-83
2021/12/08 15:37:55;;;;;;;;;;;;;;;;;;5055289;28;20379;-84
2021/12/08 15:40:26;;;;;;;;;;;;;;;;;;5055381;28;20432;-82
2021/12/08 15:42:58;;;;;;;;;;;;;;;;;;5055013;28;19923;-82
2021/12/08 15:45:28;;;;;;;;;;;;;;;;;;5055402;28;19917;-90
2021/12/08 15:47:56;;;;;;;;;;;;;;;;;;5055132;28;19959;-86
2021/12/08 15:50:24;;;;;;;;;;;;;;;;;;5037235;28;19917;-81
2021/12/08 15:52:51;;;;;;;;;;;;;;;;;;5055029;28;19975;-82
2021/12/08 15:55:16;;;;;;;;;;;;;;;;;;5054960;28;19917;-83
2021/12/08 15:57:42;;;;;;;;;;;;;;;;;;5055069;28;20478;-84
2021/12/08 16:00:08;;;;;;;;;;;;;;;;;;5055035;28;19960;-83
2021/12/08 16:02:33;;;;;;;;;;;;;;;;;;5054966;28;19920;-82
2021/12/08 16:05:06;;;;;;;;;;;;;;;;;;5037029;28;19927;-85
2021/12/08 16:07:33;;;;;;;;;;;;;;;;;;5054755;28;19917;-86
2021/12/08 16:09:58;;;;;;;;;;;;;;;;;;5052637;28;19921;-88
2021/12/08 16:12:24;;;;;;;;;;;;;;;;;;5053611;28;19928;-87
2021/12/08 16:14:57;;;;;;;;;;;;;;;;;;5051122;28;19928;-84
2021/12/08 16:17:30;;;;;;;;;;;;;;;;;;5039285;28;20063;-83
2021/12/08 16:20:05;;;;;;;;;;;;;;;;;;5052960;28;19999;-87
2021/12/08 16:22:30;;;;;;;;;;;;;;;;;;5053812;28;19924;-78
2021/12/08 16:24:57;;;;;;;;;;;;;;;;;;5052915;28;19982;-79
2021/12/08 16:27:24;;;;;;;;;;;;;;;;;;5048574;28;20280;-84
2021/12/08 16:29:50;;;;;;;;;;;;;;;;;;5046951;28;19925;-88
2021/12/08 16:32:18;;;;;;;;;;;;;;;;;;5054314;28;19927;-85
2021/12/08 16:34:44;;;;;;;;;;;;;;;;;;5036219;28;19917;-85
2021/12/08 16:37:12;;;;;;;;;;;;;;;;;;5035314;28;20249;-82
2021/12/08 16:39:56;;;;;;;;;;;;;;;;;;5032771;28;20381;-81
2021/12/08 16:45:08;;;;;;;;;;;;;;;;;;5053607;28;19928;-81
2021/12/08 16:47:33;;;;;;;;;;;;;;;;;;5050287;28;19917;-82
2021/12/08 16:49:59;;;;;;;;;;;;;;;;;;5018972;28;19927;-80
2021/12/08 16:52:25;;;;;;;;;;;;;;;;;;5033988;28;20313;-81
2021/12/08 16:54:52;;;;;;;;;;;;;;;;;;5037173;28;19921;-81
2021/12/08 16:57:17;;;;;;;;;;;;;;;;;;5050067;28;19920;-81
2021/12/08 16:59:43;;;;;;;;;;;;;;;;;;5050489;28;19918;-81
2021/12/08 17:02:08;;;;;;;;;;;;;;;;;;5033673;28;19921;-80
2021/12/08 17:04:34;;;;;;;;;;;;;;;;;;5033595;28;19962;-80
2021/12/08 17:06:59;;;;;;;;;;;;;;;;;;5033130;28;19917;-82
2021/12/08 17:09:25;;;;;;;;;;;;;;;;;;5020017;28;19924;-82
2021/12/08 17:11:50;;;;;;;;;;;;;;;;;;5052905;28;20050;-80
2021/12/08 17:14:16;;;;;;;;;;;;;;;;;;5036097;28;19925;-81
2021/12/08 17:16:41;;;;;;;;;;;;;;;;;;5051710;28;19928;-79
2021/12/08 17:19:10;;;;;;;;;;;;;;;;;;5053117;28;19917;-81
2021/12/08 17:21:39;;;;;;;;;;;;;;;;;;5045821;28;19925;-80
2021/12/08 17:24:05;;;;;;;;;;;;;;;;;;5041115;28;20352;-82
2021/12/08 17:26:31;;;;;;;;;;;;;;;;;;5047540;28;20011;-82
2021/12/08 17:28:56;;;;;;;;;;;;;;;;;;5052131;28;20003;-83
2021/12/08 17:31:22;;;;;;;;;;;;;;;;;;5053142;28;20304;-88
2021/12/08 17:33:47;;;;;;;;;;;;;;;;;;5045132;28;19967;-84
2021/12/08 17:36:13;;;;;;;;;;;;;;;;;;5052982;28;19917;-77
2021/12/08 17:38:40;;;;;;;;;;;;;;;;;;5053276;28;19920;-82
2021/12/08 17:41:06;;;;;;;;;;;;;;;;;;5052930;28;20011;-89
2021/12/08 17:43:32;;;;;;;;;;;;;;;;;;5053150;28;20015;-87
2021/12/08 17:45:59;;;;;;;;;;;;;;;;;;5052933;28;20011;-82
2021/12/08 17:48:24;;;;;;;;;;;;;;;;;;5049806;28;20388;-77